Time;durP1;ratioP1;P1;durP2;ratioP2;P2;SDS_P1;SDS_P2;PMS_P1;PMS_P2;Temp;Humidity;BMP_temperature;BMP_pressure;BME280_temperature;BME280_humidity;BME280_pressure;Samples;Min_cycle;Max_cycle;Signal;HPM_P1;HPM_P2
2022/02/15 00:01:28;;;;;;;13.98;6.32;;;6.70;89.10;;;;;;5169120;28;20054;-86
2022/02/15 00:04:00;;;;;;;12.75;6.68;;;6.60;88.90;;;;;;5169746;28;20065;-86
2022/02/15 00:06:33;;;;;;;14.10;5.63;;;6.70;89.80;;;;;;5169056;28;20410;-86
2022/02/15 00:09:06;;;;;;;11.13;6.18;;;6.60;89.50;;;;;;5169029;28;20046;-85
2022/02/15 00:11:39;;;;;;;13.27;5.90;;;6.60;90.10;;;;;;5185546;28;20052;-86
2022/02/15 00:14:13;;;;;;;13.38;6.30;;;6.60;90.00;;;;;;5168974;28;20053;-86
2022/02/15 00:16:45;;;;;;;9.82;5.78;;;6.50;89.80;;;;;;5184871;28;20049;-86
2022/02/15 00:19:19;;;;;;;11.63;6.15;;;6.60;90.30;;;;;;5192783;28;20054;-86
2022/02/15 00:21:55;;;;;;;10.63;6.03;;;6.50;90.00;;;;;;5168533;28;20057;-86
2022/02/15 00:24:27;;;;;;;10.98;5.43;;;6.50;90.00;;;;;;5181667;23;20526;-40
2022/02/15 00:27:00;;;;;;;10.88;5.68;;;6.50;90.20;;;;;;5228987;28;20044;-39
2022/02/15 00:29:32;;;;;;;11.73;6.25;;;6.50;90.30;;;;;;5228662;28;20500;-39
2022/02/15 00:32:05;;;;;;;11.43;6.22;;;6.50;90.30;;;;;;5197790;28;20045;-42
2022/02/15 00:34:37;;;;;;;9.87;5.97;;;6.50;90.20;;;;;;5223818;28;20044;-39
2022/02/15 00:37:11;;;;;;;;;;;6.50;90.20;;;;;;5228020;28;20060;-43
2022/02/15 00:39:43;;;;;;;12.27;5.25;;;6.40;90.60;;;;;;5227439;28;19932;-39
2022/02/15 00:42:16;;;;;;;12.30;6.30;;;6.50;90.70;;;;;;5204940;28;20056;-39
2022/02/15 00:44:48;;;;;;;12.00;6.32;;;6.50;90.60;;;;;;5198303;28;20052;-40
2022/02/15 00:47:20;;;;;;;12.80;6.15;;;6.40;90.40;;;;;;5205403;28;20053;-39
2022/02/15 00:49:53;;;;;;;15.75;6.40;;;6.40;90.20;;;;;;5228919;28;20048;-39
2022/02/15 00:52:27;;;;;;;9.60;5.80;;;6.30;90.50;;;;;;5194459;28;20603;-39
2022/02/15 00:54:59;;;;;;;12.23;6.05;;;6.30;90.80;;;;;;5231214;28;20319;-39
2022/02/15 00:57:32;;;;;;;14.05;6.05;;;6.30;90.60;;;;;;5191964;28;20044;-39
2022/02/15 01:00:06;;;;;;;18.58;7.75;;;6.30;90.70;;;;;;5231923;28;20032;-43
2022/02/15 01:02:38;;;;;;;16.33;6.65;;;6.30;90.90;;;;;;5183302;28;20051;-42
2022/02/15 01:05:11;;;;;;;14.73;6.83;;;6.30;91.00;;;;;;5209939;28;20049;-39
2022/02/15 01:07:44;;;;;;;12.02;6.75;;;6.30;91.10;;;;;;5194916;28;21083;-39
2022/02/15 01:10:20;;;;;;;12.15;6.15;;;7.70;91.40;;;;;;5213976;28;20044;-40
2022/02/15 01:12:54;;;;;;;14.10;6.47;;;6.30;91.20;;;;;;5233051;28;20575;-39
2022/02/15 01:15:29;;;;;;;18.13;6.38;;;7.20;90.60;;;;;;5205992;28;20303;-41
2022/02/15 01:18:01;;;;;;;11.13;6.72;;;6.30;90.70;;;;;;5208405;28;20680;-39
2022/02/15 01:20:34;;;;;;;10.18;6.18;;;6.30;90.70;;;;;;5220174;28;20218;-39
2022/02/15 01:23:07;;;;;;;17.30;6.23;;;6.30;90.70;;;;;;5189549;28;20052;-40
2022/02/15 01:25:40;;;;;;;10.73;5.90;;;7.60;90.70;;;;;;5202709;28;20314;-40
2022/02/15 01:28:13;;;;;;;12.25;6.18;;;6.30;90.60;;;;;;5200336;28;20040;-44
2022/02/15 01:30:45;;;;;;;13.00;6.32;;;6.40;90.70;;;;;;5196951;28;20051;-39
2022/02/15 01:33:18;;;;;;;10.75;5.80;;;6.80;90.70;;;;;;5201218;28;20052;-41
2022/02/15 01:35:50;;;;;;;10.82;6.10;;;6.40;90.80;;;;;;5180490;28;20037;-39
2022/02/15 01:38:24;;;;;;;14.95;6.45;;;6.50;90.70;;;;;;5173642;28;20059;-39
2022/02/15 01:40:57;;;;;;;13.97;7.03;;;6.50;90.80;;;;;;5193951;28;20524;-40
2022/02/15 01:43:31;;;;;;;12.90;6.30;;;6.50;90.80;;;;;;5196335;28;20118;-40
2022/02/15 01:46:03;;;;;;;12.43;6.80;;;6.10;90.60;;;;;;5196540;28;20055;-39
2022/02/15 01:48:36;;;;;;;11.30;6.28;;;6.50;91.00;;;;;;5215808;28;20515;-40
2022/02/15 01:51:09;;;;;;;11.80;6.82;;;6.50;91.10;;;;;;5179766;28;20756;-40
2022/02/15 01:53:43;;;;;;;14.93;6.55;;;6.40;90.80;;;;;;5204699;28;20040;-39
2022/02/15 01:56:16;;;;;;;11.48;5.93;;;6.30;91.10;;;;;;5216946;28;20106;-39
2022/02/15 01:58:48;;;;;;;12.18;5.80;;;6.60;91.20;;;;;;5207874;28;20056;-40
2022/02/15 02:01:24;;;;;;;11.68;6.30;;;6.30;91.20;;;;;;5199224;28;20176;-39
2022/02/15 02:05:47;;;;;;;14.15;5.82;;;6.30;91.30;;;;;;5201824;28;20041;-41
2022/02/15 02:07:03;;;;;;;14.02;6.18;;;6.30;91.20;;;;;;5196638;28;20041;-41
2022/02/15 02:09:40;;;;;;;12.18;6.40;;;8.10;91.90;;;;;;5193814;28;20040;-40
2022/02/15 02:12:13;;;;;;;14.35;6.80;;;6.20;91.60;;;;;;5207471;28;20040;-40
2022/02/15 02:15:05;;;;;;;12.32;6.10;;;6.10;91.90;;;;;;5206190;28;20051;-40
2022/02/15 02:17:58;;;;;;;12.50;6.35;;;6.10;92.10;;;;;;5221700;28;20057;-39
2022/02/15 02:20:31;;;;;;;;;;;6.10;92.00;;;;;;5200488;28;20048;-40
2022/02/15 02:23:05;;;;;;;13.40;6.10;;;5.90;92.60;;;;;;5202767;28;21318;-41
2022/02/15 02:25:38;;;;;;;13.37;5.47;;;6.00;92.30;;;;;;5193738;28;20057;-40
2022/02/15 02:28:11;;;;;;;12.30;6.50;;;5.90;92.40;;;;;;5196735;28;20302;-39
2022/02/15 02:30:44;;;;;;;10.05;5.40;;;5.90;92.80;;;;;;5190776;28;20639;-39
2022/02/15 02:33:16;;;;;;;9.98;5.65;;;5.90;93.20;;;;;;5200777;28;20507;-39
2022/02/15 02:35:58;;;;;;;12.55;5.80;;;5.90;93.20;;;;;;5197777;28;20044;-39
2022/02/15 02:38:31;;;;;;;11.18;5.70;;;5.90;93.80;;;;;;5189136;28;20040;-39
2022/02/15 02:41:10;;;;;;;12.18;5.97;;;5.80;93.70;;;;;;5212377;28;20049;-41
2022/02/15 02:43:43;;;;;;;15.13;6.10;;;5.80;93.80;;;;;;5190240;28;20048;-39
2022/02/15 02:46:16;;;;;;;12.57;6.13;;;5.80;94.10;;;;;;5205061;28;20797;-40
2022/02/15 02:48:48;;;;;;;9.50;6.35;;;5.80;94.20;;;;;;5213680;28;20056;-40
2022/02/15 02:51:21;;;;;;;13.23;5.95;;;5.80;94.30;;;;;;5200139;28;21703;-40
2022/02/15 02:53:53;;;;;;;12.23;6.10;;;5.80;94.30;;;;;;5200083;28;20551;-38
2022/02/15 02:56:28;;;;;;;11.90;6.40;;;5.90;94.80;;;;;;5202722;28;20037;-40
2022/02/15 02:59:01;;;;;;;11.90;6.32;;;5.90;95.20;;;;;;5193820;28;20049;-40
2022/02/15 03:01:34;;;;;;;;;;;5.90;95.70;;;;;;5188362;28;20718;-39
2022/02/15 03:04:09;;;;;;;10.30;6.10;;;5.90;96.90;;;;;;5212015;28;20403;-39
2022/02/15 03:06:41;;;;;;;13.52;6.18;;;5.90;96.40;;;;;;5193985;28;20053;-39
2022/02/15 03:09:14;;;;;;;10.77;6.35;;;6.00;97.00;;;;;;5189972;28;20043;-40
2022/02/15 03:11:47;;;;;;;14.07;5.67;;;6.00;97.60;;;;;;5196445;28;20480;-39
2022/02/15 03:14:19;;;;;;;11.30;6.20;;;5.50;98.80;;;;;;5204535;28;20052;-38
2022/02/15 03:16:57;;;;;;;12.48;5.85;;;6.70;99.80;;;;;;5178631;28;20055;-39
2022/02/15 03:19:32;;;;;;;10.13;6.07;;;6.00;99.90;;;;;;5192790;28;20064;-42
2022/02/15 03:22:05;;;;;;;11.02;6.35;;;6.00;99.90;;;;;;5194892;28;20049;-39
2022/02/15 03:24:39;;;;;;;12.02;5.82;;;6.10;99.90;;;;;;5180704;28;20507;-39
2022/02/15 03:27:12;;;;;;;10.88;5.93;;;6.10;99.90;;;;;;5187654;28;20056;-40
2022/02/15 03:29:45;;;;;;;13.15;6.57;;;6.10;99.90;;;;;;5191315;28;20588;-40
2022/02/15 03:32:17;;;;;;;10.18;6.20;;;6.10;99.90;;;;;;5190877;28;20040;-40
2022/02/15 03:34:50;;;;;;;11.13;5.70;;;6.10;99.90;;;;;;5195553;28;20496;-38
2022/02/15 03:37:23;;;;;;;14.43;7.23;;;6.10;99.90;;;;;;5205962;28;20045;-42
2022/02/15 03:39:56;;;;;;;10.80;6.95;;;6.10;99.90;;;;;;5190513;28;20051;-38
2022/02/15 03:45:22;;;;;;;9.77;6.13;;;6.80;99.90;;;;;;5195229;28;20048;-39
2022/02/15 03:48:16;;;;;;;9.07;5.30;;;6.50;99.90;;;;;;5177923;28;20284;-38
2022/02/15 03:50:50;;;;;;;8.30;5.40;;;6.10;99.90;;;;;;5195076;28;20064;-38
2022/02/15 03:53:23;;;;;;;10.13;4.83;;;6.10;99.90;;;;;;5195396;28;20433;-39
2022/02/15 03:55:55;;;;;;;11.25;5.38;;;6.20;99.90;;;;;;5203257;28;20048;-39
2022/02/15 03:58:28;;;;;;;6.57;4.15;;;6.20;99.90;;;;;;5188281;28;20064;-39
2022/02/15 04:01:02;;;;;;;7.72;4.50;;;6.20;99.90;;;;;;5170921;28;20055;-41
2022/02/15 04:03:35;;;;;;;10.70;4.32;;;6.50;99.90;;;;;;5181462;28;20063;-40
2022/02/15 04:06:07;;;;;;;6.75;3.83;;;6.10;99.90;;;;;;5189232;28;20049;-38
2022/02/15 04:08:41;;;;;;;6.57;4.00;;;;;;;;;;5200388;28;20055;-40
2022/02/15 04:11:14;;;;;;;8.48;4.28;;;;;;;;;;5196515;28;20441;-42
2022/02/15 04:13:47;;;;;;;8.07;4.03;;;8.50;99.90;;;;;;5193870;28;20107;-39
2022/02/15 04:16:20;;;;;;;6.70;3.53;;;6.20;99.90;;;;;;5191406;28;20052;-39
2022/02/15 04:18:52;;;;;;;5.53;3.60;;;6.20;99.90;;;;;;5179509;28;20041;-38
2022/02/15 04:21:26;;;;;;;5.18;3.42;;;7.80;99.90;;;;;;5193221;28;20057;-39
2022/02/15 04:23:59;;;;;;;7.22;3.60;;;6.00;99.90;;;;;;5207531;28;20438;-40
2022/02/15 04:26:31;;;;;;;6.93;3.70;;;7.30;99.90;;;;;;5198677;28;20049;-39
2022/02/15 04:29:04;;;;;;;4.85;3.50;;;8.20;99.90;;;;;;5197910;28;20064;-39
2022/02/15 04:31:45;;;;;;;7.07;3.92;;;6.10;99.90;;;;;;5174327;28;20045;-41
2022/02/15 04:34:18;;;;;;;7.78;4.00;;;6.10;99.90;;;;;;5185795;28;20060;-39
2022/02/15 04:36:53;;;;;;;7.97;4.00;;;;;;;;;;5197082;28;20047;-40
2022/02/15 04:39:26;;;;;;;7.13;4.35;;;6.10;99.90;;;;;;5211823;28;20037;-39
2022/02/15 04:42:09;;;;;;;7.50;4.63;;;6.20;99.90;;;;;;5192728;28;20044;-40
2022/02/15 04:44:43;;;;;;;7.78;4.25;;;6.00;99.90;;;;;;5189756;28;20055;-40
2022/02/15 04:47:18;;;;;;;6.47;4.05;;;6.10;99.90;;;;;;5193202;28;20404;-39
2022/02/15 04:49:51;;;;;;;7.05;4.43;;;6.00;99.90;;;;;;5216347;28;20037;-42
2022/02/15 04:52:24;;;;;;;6.80;3.88;;;6.00;99.90;;;;;;5206172;28;20393;-40
2022/02/15 04:54:57;;;;;;;7.28;4.28;;;6.00;99.90;;;;;;5215990;28;20080;-40
2022/02/15 04:57:29;;;;;;;6.95;3.70;;;6.00;99.90;;;;;;5188719;28;20052;-39
2022/02/15 05:00:06;;;;;;;8.68;4.35;;;6.00;99.90;;;;;;5195006;28;20048;-38
2022/02/15 05:03:06;;;;;;;5.93;3.78;;;7.10;99.90;;;;;;5192107;28;20912;-39
2022/02/15 05:05:39;;;;;;;6.30;3.80;;;6.00;99.90;;;;;;5197378;28;20056;-39
2022/02/15 05:08:11;;;;;;;5.90;3.85;;;;;;;;;;5191919;28;20151;-40
2022/02/15 05:10:44;;;;;;;8.05;3.75;;;6.70;99.90;;;;;;5199843;28;20052;-39
2022/02/15 05:13:17;;;;;;;8.88;3.63;;;;;;;;;;5197457;28;20048;-40
2022/02/15 05:15:56;;;;;;;6.78;3.53;;;7.20;99.90;;;;;;5216216;28;20052;-39
2022/02/15 05:18:39;;;;;;;7.15;3.72;;;7.70;99.90;;;;;;5197663;28;20048;-40
2022/02/15 05:21:19;;;;;;;6.28;3.78;;;5.40;99.90;;;;;;5198629;28;20044;-39
2022/02/15 05:23:58;;;;;;;6.85;3.67;;;6.90;99.90;;;;;;5192600;28;20048;-39
2022/02/15 05:26:42;;;;;;;7.07;3.78;;;5.90;99.90;;;;;;5195996;28;20048;-39
2022/02/15 05:29:17;;;;;;;7.32;3.85;;;5.90;99.90;;;;;;5197289;28;20049;-39
2022/02/15 05:31:54;;;;;;;6.53;3.50;;;6.10;99.90;;;;;;5206175;28;20048;-38
2022/02/15 05:34:26;;;;;;;6.93;3.78;;;5.50;99.90;;;;;;5192006;28;20472;-39
2022/02/15 05:37:02;;;;;;;9.65;3.83;;;4.90;99.90;;;;;;5189863;28;20033;-39
2022/02/15 05:39:34;;;;;;;7.60;3.25;;;5.80;99.90;;;;;;5176074;28;20052;-41
2022/02/15 05:42:10;;;;;;;6.85;3.63;;;5.80;99.90;;;;;;5190112;28;20049;-40
2022/02/15 05:44:43;;;;;;;8.83;4.27;;;6.10;99.90;;;;;;5182928;28;20522;-40
2022/02/15 05:47:16;;;;;;;6.15;3.80;;;6.60;99.90;;;;;;5185626;28;20045;-38
2022/02/15 05:52:46;;;;;;;7.40;4.00;;;4.50;99.90;;;;;;5187955;28;21124;-39
2022/02/15 05:55:21;;;;;;;7.13;4.00;;;5.80;99.90;;;;;;5190586;28;20040;-39
2022/02/15 05:57:54;;;;;;;6.53;3.70;;;5.80;99.90;;;;;;5178775;28;20055;-38
2022/02/15 06:00:27;;;;;;;6.00;4.03;;;5.80;99.90;;;;;;5199195;28;20087;-39
2022/02/15 06:03:01;;;;;;;7.33;4.47;;;5.80;99.90;;;;;;5206926;28;20055;-40
2022/02/15 06:05:43;;;;;;;8.00;4.10;;;5.80;99.90;;;;;;5196379;28;20432;-40
2022/02/15 06:08:16;;;;;;;5.95;3.72;;;;;;;;;;5191359;28;20053;-40
2022/02/15 06:10:51;;;;;;;7.88;4.30;;;6.30;99.90;;;;;;5195651;28;20043;-40
2022/02/15 06:13:49;;;;;;;8.77;4.60;;;5.80;99.90;;;;;;5195655;28;20504;-41
2022/02/15 06:16:22;;;;;;;8.52;3.97;;;5.80;99.90;;;;;;5205557;28;20127;-40
2022/02/15 06:19:07;;;;;;;8.32;4.38;;;;;;;;;;5183866;28;20082;-38
2022/02/15 06:21:41;;;;;;;8.52;4.25;;;5.70;99.90;;;;;;5187986;28;20693;-37
2022/02/15 06:24:23;;;;;;;8.45;3.92;;;6.60;99.90;;;;;;5207124;28;20045;-38
2022/02/15 06:27:17;;;;;;;8.95;4.35;;;6.00;99.90;;;;;;5194948;28;20067;-41
2022/02/15 06:30:06;;;;;;;7.63;4.05;;;5.70;99.90;;;;;;5179426;28;20436;-39
2022/02/15 06:32:48;;;;;;;9.07;3.80;;;;;;;;;;5155371;28;20051;-38
2022/02/15 06:35:21;;;;;;;8.03;4.67;;;;;;;;;;5172259;28;26065;-38
2022/02/15 06:38:01;;;;;;;8.02;4.22;;;;;;;;;;5173615;23;20116;-30
2022/02/15 06:40:34;;;;;;;9.60;4.57;;;;;;;;;;5199636;28;20053;-30
2022/02/15 06:43:10;;;;;;;7.82;4.50;;;;;;;;;;5174355;28;21563;-31
2022/02/15 06:45:45;;;;;;;9.30;4.63;;;;;;;;;;5163595;28;20099;-30
2022/02/15 06:48:24;;;;;;;13.68;4.80;;;;;;;;;;5167326;28;20605;-30
2022/02/15 06:51:01;;;;;;;8.80;4.00;;;;;;;;;;5177970;28;20049;-30
2022/02/15 06:54:01;;;;;;;9.57;4.43;;;;;;;;;;5176818;28;20508;-30
2022/02/15 06:56:46;;;;;;;8.93;4.88;;;;;;;;;;5189487;28;20058;-30
2022/02/15 06:59:27;;;;;;;7.97;4.30;;;;;;;;;;5175758;28;20045;-30
2022/02/15 07:02:00;;;;;;;9.60;4.70;;;;;;;;;;5174388;28;20037;-30
2022/02/15 07:04:37;;;;;;;12.15;4.55;;;5.60;99.90;;;;;;5185395;28;20060;-30
2022/02/15 07:07:10;;;;;;;9.35;4.53;;;;;;;;;;5172384;28;20067;-30
2022/02/15 07:09:44;;;;;;;10.32;4.38;;;;;;;;;;5180464;28;20056;-41
2022/02/15 07:12:25;;;;;;;8.57;5.13;;;5.60;99.90;;;;;;5193484;28;20525;-40
2022/02/15 07:15:13;;;;;;;9.70;5.68;;;5.30;99.90;;;;;;5196651;28;20047;-40
2022/02/15 07:17:50;;;;;;;11.30;5.85;;;;;;;;;;5191393;28;20048;-41
2022/02/15 07:20:28;;;;;;;11.65;5.93;;;4.40;99.90;;;;;;5187911;28;20041;-40
2022/02/15 07:23:20;;;;;;;16.35;6.72;;;5.50;99.90;;;;;;5184567;28;20632;-39
2022/02/15 07:26:13;;;;;;;11.60;6.63;;;5.60;99.90;;;;;;5169557;28;20716;-41
2022/02/15 07:28:53;;;;;;;12.65;6.80;;;5.90;99.90;;;;;;5176689;28;20174;-39
2022/02/15 07:31:26;;;;;;;14.65;7.13;;;4.40;99.90;;;;;;5177611;28;20621;-41
2022/02/15 07:33:59;;;;;;;12.18;6.40;;;5.60;99.90;;;;;;5186806;28;20068;-40
2022/02/15 07:36:35;;;;;;;15.40;7.07;;;5.60;99.90;;;;;;5194895;28;20041;-40
2022/02/15 07:39:10;;;;;;;13.75;6.18;;;7.30;99.90;;;;;;5188684;28;21702;-41
2022/02/15 07:41:43;;;;;;;11.98;6.53;;;5.60;99.90;;;;;;5176988;28;20426;-41
2022/02/15 07:44:16;;;;;;;11.63;6.15;;;5.50;99.90;;;;;;5174415;28;20219;-36
2022/02/15 07:46:49;;;;;;;10.85;6.57;;;5.50;99.90;;;;;;5179286;28;20312;-41
2022/02/15 07:49:21;;;;;;;13.45;6.88;;;4.60;99.90;;;;;;5191140;28;20180;-41
2022/02/15 07:51:54;;;;;;;13.23;6.75;;;5.60;99.90;;;;;;5187143;28;20045;-39
2022/02/15 07:54:27;;;;;;;17.23;7.95;;;5.60;99.90;;;;;;5194481;28;20041;-43
2022/02/15 07:56:59;;;;;;;16.47;8.40;;;5.90;99.90;;;;;;5192351;28;20051;-39
2022/02/15 07:59:32;;;;;;;16.27;8.98;;;5.60;99.90;;;;;;5195457;28;20049;-41
2022/02/15 08:02:04;;;;;;;16.85;8.65;;;5.70;99.90;;;;;;5171547;28;20049;-41
2022/02/15 08:04:37;;;;;;;16.17;8.30;;;;;;;;;;5198502;28;20052;-41
2022/02/15 08:07:13;;;;;;;15.48;8.27;;;7.50;99.90;;;;;;5188985;28;20043;-41
2022/02/15 08:09:45;;;;;;;20.13;9.55;;;4.60;99.90;;;;;;5191729;28;20057;-40
2022/02/15 08:12:19;;;;;;;14.15;8.25;;;6.20;99.90;;;;;;5195059;28;20049;-40
2022/02/15 08:14:51;;;;;;;18.40;7.63;;;7.50;99.90;;;;;;5187343;28;20701;-40
2022/02/15 08:17:25;;;;;;;15.90;6.77;;;;;;;;;;5180210;28;20036;-39
2022/02/15 08:19:58;;;;;;;13.18;6.38;;;;;;;;;;5194475;28;20045;-41
2022/02/15 08:22:30;;;;;;;14.27;6.72;;;5.60;99.90;;;;;;5189902;28;20045;-38
2022/02/15 08:25:03;;;;;;;7.88;5.45;;;5.60;99.90;;;;;;5188774;28;20570;-40
2022/02/15 08:27:36;;;;;;;13.10;5.43;;;7.20;99.90;;;;;;5184727;28;20732;-41
2022/02/15 08:30:09;;;;;;;11.75;5.50;;;4.90;99.90;;;;;;5190441;28;20045;-38
2022/02/15 08:32:42;;;;;;;12.23;5.72;;;5.10;99.90;;;;;;5183430;28;20049;-40
2022/02/15 08:35:16;;;;;;;7.88;5.35;;;5.90;99.90;;;;;;5190975;28;20050;-40
2022/02/15 08:37:51;;;;;;;9.88;5.53;;;5.60;99.90;;;;;;5186849;28;20048;-41
2022/02/15 08:41:11;;;;;;;9.27;5.40;;;5.60;99.90;;;;;;5158450;28;20049;-39
2022/02/15 08:44:12;;;;;;;9.77;5.43;;;5.70;99.90;;;;;;5177761;28;20060;-38
2022/02/15 08:47:22;;;;;;;11.75;4.72;;;4.90;99.90;;;;;;5197719;28;20487;-38
2022/02/15 08:49:56;;;;;;;7.82;4.63;;;;;;;;;;5186206;28;20045;-41
2022/02/15 08:52:28;;;;;;;6.47;4.13;;;6.10;99.90;;;;;;5188912;28;20568;-41
2022/02/15 08:55:00;;;;;;;7.45;4.50;;;6.80;99.90;;;;;;5185422;28;20068;-38
2022/02/15 08:57:33;;;;;;;8.05;4.05;;;6.80;99.90;;;;;;5199859;28;20049;-41
2022/02/15 09:00:08;;;;;;;;;;;5.70;99.90;;;;;;5192424;28;20037;-40
2022/02/15 09:02:41;;;;;;;8.77;3.97;;;5.40;99.90;;;;;;5180071;28;19924;-37
2022/02/15 09:05:13;;;;;;;8.35;4.18;;;6.40;99.90;;;;;;5189637;28;20263;-40
2022/02/15 09:07:45;;;;;;;5.57;3.40;;;5.40;99.90;;;;;;5180555;28;20063;-40
2022/02/15 09:10:18;;;;;;;7.00;3.83;;;6.60;99.90;;;;;;5179804;28;20111;-41
2022/02/15 09:12:51;;;;;;;6.50;4.00;;;;;;;;;;5187032;28;20537;-40
2022/02/15 09:15:24;;;;;;;5.72;3.88;;;6.40;99.90;;;;;;5164704;28;20049;-40
2022/02/15 09:17:57;;;;;;;6.90;4.03;;;5.20;99.90;;;;;;5171878;28;20136;-37
2022/02/15 09:20:31;;;;;;;5.95;4.22;;;;;;;;;;5140310;28;20049;-40
2022/02/15 09:23:04;;;;;;;6.75;3.88;;;6.20;99.90;;;;;;5173420;28;20045;-40
2022/02/15 09:25:36;;;;;;;12.17;5.00;;;5.90;99.90;;;;;;5195086;28;20047;-39
2022/02/15 09:28:09;;;;;;;9.18;4.85;;;5.90;99.90;;;;;;5207093;28;20041;-39
2022/02/15 09:30:42;;;;;;;12.07;5.40;;;;;;;;;;5183429;28;20050;-39
2022/02/15 09:33:15;;;;;;;7.97;4.95;;;6.60;99.90;;;;;;5175706;28;20041;-41
2022/02/15 09:36:08;;;;;;;13.38;5.47;;;;;;;;;;5176934;28;20037;-41
2022/02/15 09:44:08;;;;;;;13.00;5.13;;;5.90;99.90;;;;;;5163652;28;20029;-37
2022/02/15 09:46:44;;;;;;;7.10;4.90;;;6.00;99.90;;;;;;5177612;28;20064;-39
2022/02/15 09:52:13;;;;;;;9.07;4.28;;;3.80;99.90;;;;;;5178961;28;20056;-40
2022/02/15 09:54:46;;;;;;;10.85;5.43;;;6.20;99.90;;;;;;5169874;28;20046;-39
2022/02/15 09:57:20;;;;;;;11.18;4.47;;;8.70;99.90;;;;;;5178657;28;20040;-38
2022/02/15 09:59:54;;;;;;;10.52;4.25;;;6.20;99.90;;;;;;5167730;28;20262;-40
2022/02/15 10:02:30;;;;;;;7.72;4.63;;;6.20;99.90;;;;;;4503205;28;10000793;-40
2022/02/15 10:05:02;;;;;;;9.52;3.92;;;7.20;99.90;;;;;;5199907;28;20044;-39
2022/02/15 10:07:43;;;;;;;6.65;3.95;;;9.90;99.90;;;;;;5172904;28;20418;-41
2022/02/15 10:10:26;;;;;;;5.65;4.10;;;6.40;99.90;;;;;;5175429;28;20045;-38
2022/02/15 10:13:07;;;;;;;6.85;3.45;;;6.40;99.90;;;;;;5173593;28;20064;-33
2022/02/15 10:15:44;;;;;;;7.10;3.40;;;6.30;99.90;;;;;;5172246;28;20083;-39
2022/02/15 10:18:22;;;;;;;12.50;3.08;;;7.80;99.90;;;;;;5171881;28;20056;-41
2022/02/15 10:20:57;;;;;;;6.13;2.90;;;6.50;99.90;;;;;;5174390;28;20044;-39
2022/02/15 10:23:33;;;;;;;7.53;2.80;;;6.50;99.90;;;;;;5181620;28;20044;-39
2022/02/15 10:26:08;;;;;;;4.95;2.75;;;6.60;99.90;;;;;;5189560;28;20053;-39
2022/02/15 10:28:40;;;;;;;8.90;2.97;;;6.60;99.90;;;;;;5168608;28;20588;-40
2022/02/15 10:31:14;;;;;;;4.13;2.03;;;8.80;99.90;;;;;;5178050;28;20045;-41
2022/02/15 10:33:48;;;;;;;5.55;2.20;;;6.70;99.90;;;;;;5177136;28;20045;-39
2022/02/15 10:36:21;;;;;;;3.78;2.35;;;6.70;99.90;;;;;;5183060;28;20501;-41
2022/02/15 10:38:57;;;;;;;5.82;3.28;;;6.70;99.90;;;;;;5179062;28;20037;-41
2022/02/15 10:41:33;;;;;;;4.65;1.95;;;7.70;99.90;;;;;;5179601;28;20319;-41
2022/02/15 10:44:08;;;;;;;6.47;1.83;;;6.70;99.90;;;;;;5177323;28;20056;-41
2022/02/15 10:46:40;;;;;;;4.63;1.55;;;7.70;99.90;;;;;;5175623;28;20056;-39
2022/02/15 10:49:15;;;;;;;3.65;2.08;;;6.80;99.90;;;;;;5178986;28;20057;-41
2022/02/15 10:51:47;;;;;;;4.30;2.20;;;6.80;99.90;;;;;;5186415;28;20057;-41
2022/02/15 10:54:20;;;;;;;4.65;2.45;;;6.80;99.90;;;;;;5185617;28;20053;-41
2022/02/15 10:56:53;;;;;;;3.42;1.90;;;6.80;99.90;;;;;;5185521;28;20070;-41
2022/02/15 10:59:27;;;;;;;4.88;2.15;;;6.80;99.90;;;;;;5175332;28;20378;-41
2022/02/15 11:02:01;;;;;;;4.32;1.88;;;6.90;99.90;;;;;;5200403;28;20268;-40
2022/02/15 11:04:35;;;;;;;5.85;2.20;;;6.90;99.90;;;;;;5181030;28;20040;-38
2022/02/15 11:07:11;;;;;;;3.38;2.15;;;6.90;99.90;;;;;;5172175;28;20052;-41
2022/02/15 11:10:10;;;;;;;2.72;1.88;;;6.90;99.90;;;;;;5189090;28;21001;-41
2022/02/15 11:12:57;;;;;;;4.00;1.77;;;6.90;99.90;;;;;;5185336;28;20036;-38
2022/02/15 11:15:34;;;;;;;2.70;2.00;;;8.20;99.90;;;;;;5175996;28;20040;-41
2022/02/15 11:18:14;;;;;;;4.05;1.73;;;6.90;99.90;;;;;;5178957;28;20045;-38
2022/02/15 11:20:50;;;;;;;3.20;2.03;;;6.90;99.90;;;;;;5172222;28;20041;-39
2022/02/15 11:23:27;;;;;;;2.58;2.00;;;6.90;99.90;;;;;;5191356;28;20045;-38
2022/02/15 11:26:12;;;;;;;4.78;2.33;;;7.00;99.90;;;;;;5182544;28;20071;-39
2022/02/15 11:28:52;;;;;;;6.32;2.20;;;7.00;99.90;;;;;;5189557;28;20057;-41
2022/02/15 11:31:34;;;;;;;5.72;1.90;;;6.10;99.90;;;;;;5181707;28;20055;-41
2022/02/15 11:34:12;;;;;;;8.07;2.67;;;7.00;99.90;;;;;;5187602;28;20315;-40
2022/02/15 11:36:47;;;;;;;3.45;2.00;;;6.90;99.90;;;;;;5182733;28;22750;-36
2022/02/15 11:39:22;;;;;;;3.13;2.17;;;7.00;99.90;;;;;;5176506;28;20049;-39
2022/02/15 11:41:59;;;;;;;2.90;2.13;;;7.00;99.90;;;;;;5179205;28;20040;-39
2022/02/15 11:44:36;;;;;;;3.08;2.03;;;6.90;99.90;;;;;;5175301;28;20060;-41
2022/02/15 11:47:19;;;;;;;4.32;2.28;;;7.00;99.90;;;;;;5185109;28;20532;-40
2022/02/15 11:49:54;;;;;;;2.33;1.90;;;6.90;99.90;;;;;;5154814;28;20060;-41
2022/02/15 11:52:29;;;;;;;2.72;2.15;;;7.00;99.90;;;;;;5190875;28;20049;-38
2022/02/15 11:55:16;;;;;;;2.80;2.08;;;7.00;99.90;;;;;;5180050;28;20055;-37
2022/02/15 11:57:50;;;;;;;3.78;2.40;;;6.90;99.90;;;;;;5174372;28;20272;-41
2022/02/15 12:00:30;;;;;;;3.15;2.45;;;6.90;99.90;;;;;;5180065;28;20045;-41
2022/02/15 12:03:04;;;;;;;3.67;2.22;;;7.00;99.90;;;;;;5185438;28;20049;-41
2022/02/15 12:05:42;;;;;;;5.20;2.20;;;7.00;99.90;;;;;;5180686;28;20045;-40
2022/02/15 12:08:21;;;;;;;4.47;2.17;;;7.10;99.90;;;;;;5186262;28;20052;-41
2022/02/15 12:11:02;;;;;;;3.38;2.35;;;7.10;99.90;;;;;;5178310;28;20045;-41
2022/02/15 12:13:35;;;;;;;2.88;2.40;;;7.00;99.90;;;;;;5166800;28;23085;-41
2022/02/15 12:16:09;;;;;;;3.35;2.05;;;7.10;99.90;;;;;;5164844;28;20317;-37
2022/02/15 12:18:46;;;;;;;5.65;2.95;;;7.10;99.90;;;;;;5173230;28;20499;-41
2022/02/15 12:21:18;;;;;;;7.28;2.72;;;7.10;99.90;;;;;;5157685;28;20063;-40
2022/02/15 12:23:50;;;;;;;4.07;2.40;;;7.10;99.90;;;;;;5184951;28;20052;-41
2022/02/15 12:26:43;;;;;;;3.53;2.20;;;7.10;99.90;;;;;;5181659;28;20044;-41
2022/02/15 12:29:16;;;;;;;4.90;3.20;;;7.10;99.90;;;;;;5169981;28;20943;-40
2022/02/15 12:32:00;;;;;;;5.13;2.30;;;7.10;99.90;;;;;;5163440;28;20417;-41
2022/02/15 12:34:34;;;;;;;4.45;3.22;;;7.20;99.90;;;;;;5167957;28;20044;-41
2022/02/15 12:37:15;;;;;;;4.97;2.70;;;7.70;99.90;;;;;;5151090;28;20457;-40
2022/02/15 12:40:00;;;;;;;4.10;2.63;;;7.10;99.90;;;;;;5181782;23;20060;-38
2022/02/15 12:42:34;;;;;;;;;;;7.20;99.90;;;;;;5190456;28;20032;-39
2022/02/15 12:45:10;;;;;;;6.65;3.58;;;6.90;99.90;;;;;;5170243;28;19929;-41
2022/02/15 12:47:43;;;;;;;3.85;2.97;;;7.10;99.90;;;;;;5179402;28;20048;-39
2022/02/15 12:50:17;;;;;;;7.15;3.70;;;7.50;99.90;;;;;;5162947;28;20041;-38
2022/02/15 12:52:53;;;;;;;6.95;4.07;;;7.10;99.90;;;;;;5154126;28;20056;-38
2022/02/15 12:55:26;;;;;;;4.05;2.90;;;7.10;99.90;;;;;;5159283;28;20618;-39
2022/02/15 12:57:58;;;;;;;5.00;3.85;;;7.20;99.90;;;;;;5129015;28;20613;-38
2022/02/15 13:00:31;;;;;;;6.43;3.75;;;7.30;99.90;;;;;;5128401;28;20049;-39
2022/02/15 13:03:04;;;;;;;4.07;3.13;;;7.30;99.90;;;;;;5119432;28;20049;-39
2022/02/15 13:05:39;;;;;;;5.43;3.92;;;7.30;99.90;;;;;;5132542;28;20056;-39
2022/02/15 13:08:17;;;;;;;5.78;3.95;;;7.30;99.90;;;;;;5147823;28;20340;-45
2022/02/15 13:10:58;;;;;;;4.93;4.13;;;8.30;99.90;;;;;;5152337;28;21323;-40
2022/02/15 13:13:31;;;;;;;7.15;3.65;;;8.30;99.90;;;;;;5132914;28;20072;-39
2022/02/15 13:16:05;;;;;;;6.55;4.53;;;7.30;99.90;;;;;;5148541;28;20057;-38
2022/02/15 13:18:42;;;;;;;6.45;3.53;;;6.10;99.90;;;;;;5132014;28;20048;-41
2022/02/15 13:21:24;;;;;;;5.40;3.83;;;5.70;99.90;;;;;;5129171;28;20485;-39
2022/02/15 13:24:05;;;;;;;6.18;4.50;;;6.40;99.90;;;;;;5162297;28;20053;-40
2022/02/15 13:26:41;;;;;;;7.53;3.92;;;9.40;99.90;;;;;;5159185;28;20049;-39
2022/02/15 13:29:30;;;;;;;6.28;4.20;;;5.90;99.90;;;;;;5162584;28;20289;-39
2022/02/15 13:32:03;;;;;;;5.88;4.15;;;7.30;99.90;;;;;;5165659;28;20048;-40
2022/02/15 13:34:37;;;;;;;5.38;3.63;;;8.30;99.90;;;;;;5132049;28;20045;-39
2022/02/15 13:37:14;;;;;;;6.88;4.40;;;9.10;99.90;;;;;;5148042;28;20068;-39
2022/02/15 13:39:47;;;;;;;7.22;4.90;;;7.30;99.90;;;;;;5169818;28;20041;-39
2022/02/15 13:42:20;;;;;;;6.18;4.30;;;7.30;99.90;;;;;;5172066;28;20417;-39
2022/02/15 13:44:54;;;;;;;6.85;4.63;;;7.30;99.90;;;;;;5130957;28;20048;-39
2022/02/15 13:47:29;;;;;;;6.78;4.50;;;10.30;99.90;;;;;;5162894;28;20416;-39
2022/02/15 13:50:03;;;;;;;8.18;4.22;;;;;;;;;;5172551;28;20068;-39
2022/02/15 13:52:35;;;;;;;7.32;4.82;;;7.20;99.90;;;;;;5138686;28;20642;-39
2022/02/15 13:55:10;;;;;;;6.35;4.25;;;7.20;99.90;;;;;;5147526;28;20064;-38
2022/02/15 13:57:43;;;;;;;8.30;4.53;;;5.10;99.90;;;;;;5154398;28;20060;-38
2022/02/15 14:00:16;;;;;;;7.70;5.03;;;8.30;99.90;;;;;;5174835;28;20049;-44
2022/02/15 14:02:50;;;;;;;4.88;4.40;;;7.20;99.90;;;;;;5170213;28;20262;-39